createdAt,value
2022-12-05T00:00:11.640Z,112.5
2022-12-05T00:00:31.762Z,112.5
2022-12-05T00:00:51.714Z,157.5
2022-12-05T00:01:11.801Z,90
2022-12-05T00:01:31.841Z,90
2022-12-05T00:01:51.956Z,112.5
2022-12-05T00:02:12.037Z,90
2022-12-05T00:02:32.031Z,67.5
2022-12-05T00:02:51.994Z,112.5
2022-12-05T00:03:12.099Z,67.5
2022-12-05T00:03:32.071Z,90
2022-12-05T00:03:52.213Z,67.5
2022-12-05T00:04:12.313Z,45
2022-12-05T00:04:32.375Z,22.5
2022-12-05T00:04:52.282Z,67.5
2022-12-05T00:05:12.333Z,135
2022-12-05T00:05:32.361Z,90
2022-12-05T00:05:52.395Z,45
2022-12-05T00:06:12.465Z,22.5
2022-12-05T00:06:32.509Z,22.5
2022-12-05T00:06:52.574Z,45
2022-12-05T00:07:12.573Z,45
2022-12-05T00:07:32.624Z,67.5
2022-12-05T00:07:52.753Z,45
2022-12-05T00:08:12.827Z,45
2022-12-05T00:08:32.748Z,157.5
2022-12-05T00:08:52.867Z,180
2022-12-05T00:09:12.871Z,157.5
2022-12-05T00:09:32.935Z,67.5
2022-12-05T00:09:53.002Z,112.5
2022-12-05T00:10:13.052Z,225
2022-12-05T00:10:33.070Z,202.5
2022-12-05T00:10:53.107Z,135
2022-12-05T00:11:13.218Z,157.5
2022-12-05T00:11:33.226Z,180
2022-12-05T00:11:53.268Z,202.5
2022-12-05T00:12:13.312Z,202.5
2022-12-05T00:12:33.345Z,112.5
2022-12-05T00:12:53.410Z,112.5
2022-12-05T00:13:13.445Z,135
2022-12-05T00:13:33.459Z,157.5
2022-12-05T00:13:53.502Z,135
2022-12-05T00:14:13.573Z,90
2022-12-05T00:14:33.600Z,90
2022-12-05T00:14:53.686Z,90
2022-12-05T00:15:13.799Z,90
2022-12-05T00:15:33.898Z,45
2022-12-05T00:15:53.911Z,45
2022-12-05T00:16:14.104Z,90
2022-12-05T00:16:34.140Z,67.5
2022-12-05T00:16:54.378Z,45
2022-12-05T00:17:14.182Z,45
2022-12-05T00:17:34.302Z,90
2022-12-05T00:17:54.331Z,67.5
2022-12-05T00:18:14.415Z,157.5
2022-12-05T00:18:34.527Z,135
2022-12-05T00:18:54.556Z,67.5
2022-12-05T00:19:14.623Z,45
2022-12-05T00:19:34.615Z,45
2022-12-05T00:19:56.859Z,67.5
2022-12-05T00:20:14.709Z,90
2022-12-05T00:20:34.736Z,45
2022-12-05T00:20:54.760Z,45
2022-12-05T00:21:14.810Z,45
2022-12-05T00:21:34.861Z,67.5
2022-12-05T00:21:54.903Z,112.5
2022-12-05T00:22:14.937Z,157.5
2022-12-05T00:22:34.960Z,90
2022-12-05T00:22:55.036Z,67.5
2022-12-05T00:23:15.069Z,67.5
2022-12-05T00:23:35.111Z,135
2022-12-05T00:23:55.192Z,135
2022-12-05T00:24:15.314Z,67.5
2022-12-05T00:24:35.278Z,67.5
2022-12-05T00:24:55.308Z,67.5
2022-12-05T00:25:15.385Z,45
2022-12-05T00:25:35.421Z,45
2022-12-05T00:25:55.468Z,45
2022-12-05T00:26:15.622Z,45
2022-12-05T00:26:35.605Z,45
2022-12-05T00:26:55.627Z,45
2022-12-05T00:27:15.745Z,45
2022-12-05T00:27:35.765Z,67.5
2022-12-05T00:27:55.807Z,90
2022-12-05T00:28:15.869Z,67.5
2022-12-05T00:28:35.874Z,45
2022-12-05T00:28:55.952Z,45
2022-12-05T00:29:16.030Z,67.5
2022-12-05T00:29:36.053Z,180
2022-12-05T00:29:56.475Z,202.5
2022-12-05T00:30:16.146Z,180
2022-12-05T00:30:36.177Z,157.5
2022-12-05T00:30:56.224Z,112.5
2022-12-05T00:31:16.355Z,45
2022-12-05T00:31:36.438Z,67.5
2022-12-05T00:31:56.445Z,112.5
2022-12-05T00:32:16.469Z,157.5
2022-12-05T00:32:36.412Z,112.5
2022-12-05T00:32:56.477Z,112.5
2022-12-05T00:33:16.519Z,135
2022-12-05T00:33:36.560Z,135
2022-12-05T00:33:56.605Z,112.5
2022-12-05T00:34:16.711Z,67.5
2022-12-05T00:34:36.693Z,67.5
2022-12-05T00:34:56.717Z,67.5
2022-12-05T00:35:16.772Z,67.5
2022-12-05T00:35:36.782Z,135
2022-12-05T00:35:56.843Z,202.5
2022-12-05T00:36:16.927Z,157.5
2022-12-05T00:36:36.884Z,135
2022-12-05T00:36:56.921Z,90
2022-12-05T00:37:16.983Z,45
2022-12-05T00:37:37.036Z,90
2022-12-05T00:37:57.087Z,180
2022-12-05T00:38:17.141Z,135
2022-12-05T00:38:37.204Z,90
2022-12-05T00:38:57.243Z,112.5
2022-12-05T00:39:17.293Z,135
2022-12-05T00:39:37.298Z,202.5
2022-12-05T00:39:57.884Z,135
2022-12-05T00:40:17.389Z,180
2022-12-05T00:40:37.423Z,157.5
2022-12-05T00:40:57.466Z,202.5
2022-12-05T00:41:17.515Z,247.5
2022-12-05T00:41:37.536Z,247.5
2022-12-05T00:41:57.575Z,247.5
2022-12-05T00:42:17.639Z,157.5
2022-12-05T00:42:37.669Z,180
2022-12-05T00:42:57.710Z,202.5
2022-12-05T00:43:17.777Z,202.5
2022-12-05T00:43:37.794Z,157.5
2022-12-05T00:43:57.915Z,90
2022-12-05T00:44:17.951Z,45
2022-12-05T00:44:37.998Z,67.5
2022-12-05T00:44:58.069Z,112.5
2022-12-05T00:45:18.132Z,112.5
2022-12-05T00:45:38.208Z,90
2022-12-05T00:45:58.256Z,202.5
2022-12-05T00:46:18.284Z,135
2022-12-05T00:46:38.318Z,67.5
2022-12-05T00:46:58.304Z,45
2022-12-05T00:47:18.339Z,45
2022-12-05T00:47:38.414Z,45
2022-12-05T00:47:58.417Z,67.5
2022-12-05T00:48:18.482Z,157.5
2022-12-05T00:48:38.488Z,180
2022-12-05T00:48:58.530Z,202.5
2022-12-05T00:49:18.589Z,180
2022-12-05T00:49:38.613Z,225
2022-12-05T00:49:59.160Z,270
2022-12-05T00:50:18.697Z,315
2022-12-05T00:50:38.684Z,225
2022-12-05T00:50:58.737Z,112.5
2022-12-05T00:51:18.786Z,67.5
2022-12-05T00:51:38.884Z,45
2022-12-05T00:51:58.856Z,45
2022-12-05T00:52:18.901Z,22.5
2022-12-05T00:52:38.943Z,22.5
2022-12-05T00:52:58.978Z,22.5
2022-12-05T00:53:19.019Z,135
2022-12-05T00:53:39.064Z,247.5
2022-12-05T00:53:59.143Z,292.5
2022-12-05T00:54:19.221Z,292.5
2022-12-05T00:54:39.227Z,337.5
2022-12-05T00:54:59.262Z,180
2022-12-05T00:55:19.297Z,67.5
2022-12-05T00:55:39.324Z,45
2022-12-05T00:55:59.370Z,22.5
2022-12-05T00:56:19.436Z,67.5
2022-12-05T00:56:39.464Z,225
2022-12-05T00:56:59.523Z,247.5
2022-12-05T00:57:19.603Z,225
2022-12-05T00:57:39.625Z,225
2022-12-05T00:57:59.676Z,225
2022-12-05T00:58:19.790Z,225
2022-12-05T00:58:39.761Z,247.5
2022-12-05T00:58:59.784Z,270
2022-12-05T00:59:19.812Z,292.5
2022-12-05T00:59:39.829Z,315
2022-12-05T01:00:00.112Z,315
2022-12-05T01:00:19.914Z,315
2022-12-05T01:00:39.949Z,202.5
2022-12-05T01:01:00.039Z,247.5
2022-12-05T01:01:20.170Z,225
2022-12-05T01:01:40.313Z,157.5
2022-12-05T01:02:00.184Z,67.5
2022-12-05T01:02:20.224Z,22.5
2022-12-05T01:02:40.413Z,22.5
2022-12-05T01:03:00.416Z,135
2022-12-05T01:03:20.430Z,270
2022-12-05T01:03:40.407Z,337.5
2022-12-05T01:04:00.454Z,337.5
2022-12-05T01:04:20.522Z,337.5
2022-12-05T01:04:40.520Z,292.5
2022-12-05T01:05:00.549Z,315
2022-12-05T01:05:20.656Z,225
2022-12-05T01:05:40.623Z,112.5
2022-12-05T01:06:00.666Z,67.5
2022-12-05T01:06:20.731Z,180
2022-12-05T01:06:40.742Z,247.5
2022-12-05T01:07:00.803Z,202.5
2022-12-05T01:07:20.859Z,270
2022-12-05T01:07:40.950Z,315
2022-12-05T01:08:01.104Z,225
2022-12-05T01:08:21.091Z,270
2022-12-05T01:08:41.072Z,315
2022-12-05T01:09:01.135Z,315
2022-12-05T01:09:21.211Z,270
2022-12-05T01:09:41.192Z,135
2022-12-05T01:10:01.224Z,157.5
2022-12-05T01:10:21.299Z,225
2022-12-05T01:10:41.387Z,270
2022-12-05T01:11:01.417Z,292.5
2022-12-05T01:11:21.501Z,315
2022-12-05T01:11:41.877Z,315
2022-12-05T01:12:01.566Z,315
2022-12-05T01:12:21.609Z,270
2022-12-05T01:12:41.661Z,315
2022-12-05T01:13:01.698Z,315
2022-12-05T01:13:21.733Z,337.5
2022-12-05T01:13:41.756Z,337.5
2022-12-05T01:14:01.822Z,292.5
2022-12-05T01:14:21.938Z,315
2022-12-05T01:14:41.961Z,315
2022-12-05T01:15:02.026Z,337.5
2022-12-05T01:15:22.136Z,315
2022-12-05T01:15:42.117Z,202.5
2022-12-05T01:16:02.180Z,180
2022-12-05T01:16:22.307Z,270
2022-12-05T01:16:42.304Z,292.5
2022-12-05T01:17:02.395Z,315
2022-12-05T01:17:22.369Z,315
2022-12-05T01:17:42.409Z,292.5
2022-12-05T01:18:02.439Z,292.5
2022-12-05T01:18:22.504Z,315
2022-12-05T01:18:42.536Z,315
2022-12-05T01:19:02.585Z,225
2022-12-05T01:19:22.624Z,225
2022-12-05T01:19:42.702Z,180
2022-12-05T01:20:02.697Z,247.5
2022-12-05T01:20:22.731Z,270
2022-12-05T01:20:42.794Z,292.5
2022-12-05T01:21:02.833Z,315
2022-12-05T01:21:22.887Z,315
2022-12-05T01:21:42.913Z,315
2022-12-05T01:22:02.940Z,315
2022-12-05T01:22:23.042Z,270
2022-12-05T01:22:43.000Z,270
2022-12-05T01:23:03.074Z,270
2022-12-05T01:23:23.118Z,270
2022-12-05T01:23:43.149Z,315
2022-12-05T01:24:03.210Z,337.5
2022-12-05T01:24:23.258Z,337.5
2022-12-05T01:24:43.317Z,337.5
2022-12-05T01:25:03.365Z,315
2022-12-05T01:25:23.418Z,225
2022-12-05T01:25:43.504Z,157.5
2022-12-05T01:26:03.622Z,135
2022-12-05T01:26:23.610Z,67.5
2022-12-05T01:26:43.657Z,45
2022-12-05T01:27:03.756Z,67.5
2022-12-05T01:27:23.769Z,90
2022-12-05T01:27:43.841Z,45
2022-12-05T01:28:03.917Z,45
2022-12-05T01:28:24.026Z,45
2022-12-05T01:28:44.115Z,67.5
2022-12-05T01:29:04.131Z,90
2022-12-05T01:29:24.100Z,45
2022-12-05T01:29:44.123Z,45
2022-12-05T01:30:04.195Z,90
2022-12-05T01:30:24.229Z,112.5
2022-12-05T01:30:44.252Z,90
2022-12-05T01:31:04.345Z,180
2022-12-05T01:31:24.462Z,157.5
2022-12-05T01:31:44.500Z,135
2022-12-05T01:32:04.550Z,67.5
2022-12-05T01:32:24.636Z,67.5
2022-12-05T01:32:44.538Z,67.5
2022-12-05T01:33:04.572Z,45
2022-12-05T01:33:24.629Z,45
2022-12-05T01:33:44.677Z,67.5
2022-12-05T01:34:04.680Z,112.5
2022-12-05T01:34:24.720Z,90
2022-12-05T01:34:44.766Z,112.5
2022-12-05T01:35:04.810Z,180
2022-12-05T01:35:24.879Z,270
2022-12-05T01:35:44.889Z,180
2022-12-05T01:36:04.921Z,67.5
2022-12-05T01:36:25.015Z,90
2022-12-05T01:36:45.045Z,112.5
2022-12-05T01:37:05.114Z,45
2022-12-05T01:37:25.185Z,112.5
2022-12-05T01:37:45.233Z,225
2022-12-05T01:38:05.266Z,292.5
2022-12-05T01:38:25.310Z,202.5
2022-12-05T01:38:45.342Z,225
2022-12-05T01:39:05.396Z,247.5
2022-12-05T01:39:25.405Z,157.5
2022-12-05T01:39:45.450Z,112.5
2022-12-05T01:40:05.490Z,180
2022-12-05T01:40:25.541Z,202.5
2022-12-05T01:40:45.580Z,112.5
2022-12-05T01:41:05.600Z,67.5
2022-12-05T01:41:25.643Z,67.5
2022-12-05T01:41:45.673Z,202.5
2022-12-05T01:42:05.732Z,292.5
2022-12-05T01:42:26.416Z,315
2022-12-05T01:42:45.832Z,315
2022-12-05T01:43:05.893Z,337.5
2022-12-05T01:43:25.944Z,315
2022-12-05T01:43:45.989Z,202.5
2022-12-05T01:44:06.093Z,90
2022-12-05T01:44:26.110Z,45
2022-12-05T01:44:46.269Z,45
2022-12-05T01:45:06.166Z,157.5
2022-12-05T01:45:26.265Z,247.5
2022-12-05T01:45:46.329Z,247.5
2022-12-05T01:46:06.365Z,247.5
2022-12-05T01:46:26.406Z,247.5
2022-12-05T01:46:46.413Z,247.5
2022-12-05T01:47:06.497Z,270
2022-12-05T01:47:26.540Z,292.5
2022-12-05T01:47:46.550Z,292.5
2022-12-05T01:48:06.628Z,315
2022-12-05T01:48:26.651Z,337.5
2022-12-05T01:48:46.675Z,337.5
2022-12-05T01:49:06.704Z,292.5
2022-12-05T01:49:26.773Z,315
2022-12-05T01:49:46.808Z,315
2022-12-05T01:50:06.849Z,292.5
2022-12-05T01:50:26.890Z,292.5
2022-12-05T01:50:46.956Z,292.5
2022-12-05T01:51:06.986Z,292.5
2022-12-05T01:52:47.169Z,337.5
2022-12-05T01:53:07.258Z,315
2022-12-05T01:53:27.328Z,292.5
2022-12-05T01:53:47.369Z,292.5
2022-12-05T01:54:07.435Z,270
2022-12-05T01:54:27.509Z,247.5
2022-12-05T01:54:47.524Z,270
2022-12-05T01:55:07.560Z,292.5
2022-12-05T01:55:27.597Z,270
2022-12-05T01:55:47.641Z,292.5
2022-12-05T01:56:07.711Z,292.5
2022-12-05T01:56:27.734Z,292.5
2022-12-05T01:56:47.798Z,292.5
2022-12-05T01:57:07.914Z,292.5
2022-12-05T01:57:27.909Z,292.5
2022-12-05T01:57:47.940Z,270
2022-12-05T01:58:08.004Z,292.5
2022-12-05T01:58:28.011Z,292.5
2022-12-05T01:58:48.041Z,292.5
2022-12-05T01:59:08.079Z,270
2022-12-05T01:59:28.139Z,270
2022-12-05T01:59:48.255Z,225
2022-12-05T02:00:08.229Z,247.5
2022-12-05T02:00:28.277Z,270
2022-12-05T02:00:48.381Z,292.5
2022-12-05T02:01:08.445Z,315
2022-12-05T02:01:28.442Z,292.5
2022-12-05T02:01:48.543Z,180
2022-12-05T02:02:08.540Z,112.5
2022-12-05T02:02:28.566Z,180
2022-12-05T02:02:48.665Z,247.5
2022-12-05T02:03:08.644Z,315
2022-12-05T02:03:28.654Z,225
2022-12-05T02:03:48.728Z,157.5
2022-12-05T02:04:08.780Z,247.5
2022-12-05T02:04:28.837Z,202.5
2022-12-05T02:04:48.863Z,202.5
2022-12-05T02:05:08.911Z,225
2022-12-05T02:05:28.975Z,247.5
2022-12-05T02:05:49.027Z,225
2022-12-05T02:06:09.081Z,247.5
2022-12-05T02:06:29.145Z,292.5
2022-12-05T02:06:49.185Z,292.5
2022-12-05T02:07:09.231Z,292.5
2022-12-05T02:07:29.274Z,315
2022-12-05T02:07:49.406Z,315
2022-12-05T02:08:09.607Z,315
2022-12-05T02:08:29.402Z,315
2022-12-05T02:08:49.425Z,315
2022-12-05T02:09:09.533Z,337.5
2022-12-05T02:09:29.517Z,315
2022-12-05T02:09:49.566Z,225
2022-12-05T02:10:09.598Z,270
2022-12-05T02:10:29.645Z,315
2022-12-05T02:10:49.670Z,315
2022-12-05T02:11:09.708Z,337.5
2022-12-05T02:11:29.786Z,315
2022-12-05T02:11:49.802Z,202.5
2022-12-05T02:12:09.843Z,112.5
2022-12-05T02:12:29.921Z,67.5
2022-12-05T02:12:49.979Z,225
2022-12-05T02:13:10.054Z,315
2022-12-05T02:13:30.107Z,0
2022-12-05T02:13:50.178Z,292.5
2022-12-05T02:14:10.277Z,112.5
2022-12-05T02:14:30.218Z,45
2022-12-05T02:14:50.293Z,22.5
2022-12-05T02:15:10.319Z,90
2022-12-05T02:15:30.352Z,247.5
2022-12-05T02:15:55.504Z,292.5
2022-12-05T02:16:10.553Z,315
2022-12-05T02:16:30.534Z,292.5
2022-12-05T02:16:50.550Z,292.5
2022-12-05T02:17:10.561Z,315
2022-12-05T02:17:30.600Z,315
2022-12-05T02:17:50.660Z,270
2022-12-05T02:18:10.682Z,135
2022-12-05T02:18:30.683Z,157.5
2022-12-05T02:18:50.755Z,270
2022-12-05T02:19:10.762Z,315
2022-12-05T02:19:30.785Z,315
2022-12-05T02:19:50.839Z,292.5
2022-12-05T02:20:10.888Z,292.5
2022-12-05T02:20:30.991Z,315
2022-12-05T02:20:51.005Z,315
2022-12-05T02:21:11.145Z,337.5
2022-12-05T02:21:31.190Z,337.5
2022-12-05T02:21:51.262Z,292.5
2022-12-05T02:22:11.314Z,135
2022-12-05T02:22:31.409Z,45
2022-12-05T02:22:51.463Z,157.5
2022-12-05T02:23:11.551Z,112.5
2022-12-05T02:23:31.664Z,45
2022-12-05T02:23:51.714Z,67.5
2022-12-05T02:24:11.748Z,157.5
2022-12-05T02:24:31.787Z,180
2022-12-05T02:24:51.830Z,157.5
2022-12-05T02:25:11.854Z,67.5
2022-12-05T02:25:31.935Z,45
2022-12-05T02:25:51.963Z,90
2022-12-05T02:26:12.046Z,180
2022-12-05T02:26:32.060Z,112.5
2022-12-05T02:26:52.081Z,67.5
2022-12-05T02:27:12.108Z,45
2022-12-05T02:27:32.170Z,45
2022-12-05T02:27:52.220Z,45
2022-12-05T02:28:12.300Z,67.5
2022-12-05T02:28:32.307Z,45
2022-12-05T02:28:52.356Z,22.5
2022-12-05T02:29:12.412Z,22.5
2022-12-05T02:29:32.450Z,67.5
2022-12-05T02:29:52.486Z,90
2022-12-05T02:30:12.512Z,90
2022-12-05T02:30:32.621Z,67.5
2022-12-05T02:30:52.605Z,45
2022-12-05T02:31:12.750Z,22.5
2022-12-05T02:31:32.766Z,22.5
2022-12-05T02:31:52.775Z,22.5
2022-12-05T02:32:12.760Z,22.5
2022-12-05T02:32:32.790Z,22.5
2022-12-05T02:32:52.831Z,22.5
2022-12-05T02:33:12.876Z,22.5
2022-12-05T02:33:32.928Z,157.5
2022-12-05T02:33:52.959Z,157.5
2022-12-05T02:34:13.006Z,67.5
2022-12-05T02:34:33.032Z,22.5
2022-12-05T02:34:53.090Z,22.5
2022-12-05T02:35:13.136Z,112.5
2022-12-05T02:35:33.166Z,225
2022-12-05T02:35:53.187Z,270
2022-12-05T02:36:13.247Z,157.5
2022-12-05T02:36:33.284Z,67.5
2022-12-05T02:36:53.317Z,67.5
2022-12-05T02:37:13.339Z,45
2022-12-05T02:37:33.381Z,45
2022-12-05T02:37:53.505Z,22.5
2022-12-05T02:38:13.553Z,45
2022-12-05T02:38:33.571Z,180
2022-12-05T02:38:53.595Z,202.5
2022-12-05T02:39:13.615Z,180
2022-12-05T02:39:33.683Z,270
2022-12-05T02:39:53.738Z,270
2022-12-05T02:40:13.780Z,180
2022-12-05T02:40:33.818Z,90
2022-12-05T02:40:53.844Z,45
2022-12-05T02:41:13.922Z,22.5
2022-12-05T02:41:33.951Z,90
2022-12-05T02:41:54.007Z,112.5
2022-12-05T02:42:14.024Z,225
2022-12-05T02:42:34.053Z,292.5
2022-12-05T02:42:54.096Z,270
2022-12-05T02:43:14.121Z,180
2022-12-05T02:43:34.142Z,225
2022-12-05T02:43:54.166Z,270
2022-12-05T02:44:14.206Z,292.5
2022-12-05T02:44:34.247Z,315
2022-12-05T02:44:54.288Z,315
2022-12-05T02:45:14.366Z,225
2022-12-05T02:45:34.372Z,247.5
2022-12-05T02:45:54.560Z,292.5
2022-12-05T02:46:14.644Z,292.5
2022-12-05T02:46:34.509Z,292.5
2022-12-05T02:46:54.539Z,270
2022-12-05T02:47:14.592Z,292.5
2022-12-05T02:47:34.627Z,292.5
2022-12-05T02:47:54.711Z,315
2022-12-05T02:48:14.828Z,315
2022-12-05T02:48:34.904Z,270
2022-12-05T02:48:54.939Z,270
2022-12-05T02:49:14.935Z,292.5
2022-12-05T02:49:34.959Z,315
2022-12-05T02:49:55.232Z,337.5
2022-12-05T02:50:15.056Z,292.5
2022-12-05T02:50:35.093Z,135
2022-12-05T02:50:55.121Z,157.5
2022-12-05T02:51:15.153Z,202.5
2022-12-05T02:51:35.208Z,292.5
2022-12-05T02:51:55.237Z,202.5
2022-12-05T02:52:15.267Z,180
2022-12-05T02:52:35.320Z,225
2022-12-05T02:52:55.337Z,292.5
2022-12-05T02:53:15.386Z,270
2022-12-05T02:53:35.433Z,270
2022-12-05T02:53:55.474Z,247.5
2022-12-05T02:54:15.530Z,202.5
2022-12-05T02:54:35.570Z,270
2022-12-05T02:54:55.636Z,247.5
2022-12-05T02:55:15.666Z,247.5
2022-12-05T02:55:35.797Z,270
2022-12-05T02:55:55.734Z,157.5
2022-12-05T02:56:15.817Z,225
2022-12-05T02:56:35.840Z,202.5
2022-12-05T02:56:55.902Z,225
2022-12-05T02:57:15.969Z,270
2022-12-05T02:57:36.015Z,292.5
2022-12-05T02:57:56.082Z,270
2022-12-05T02:58:16.167Z,247.5
2022-12-05T02:58:36.199Z,157.5
2022-12-05T02:58:56.259Z,225
2022-12-05T02:59:22.844Z,292.5
2022-12-05T02:59:36.323Z,247.5
2022-12-05T02:59:56.790Z,247.5
2022-12-05T03:00:16.466Z,180
2022-12-05T03:00:36.507Z,202.5
2022-12-05T03:00:56.650Z,225
2022-12-05T03:01:16.701Z,247.5
2022-12-05T03:01:36.736Z,247.5
2022-12-05T03:01:56.713Z,247.5
2022-12-05T03:02:16.815Z,247.5
2022-12-05T03:02:36.900Z,247.5
2022-12-05T03:02:56.977Z,202.5
2022-12-05T03:03:17.050Z,225
2022-12-05T03:03:37.169Z,292.5
2022-12-05T03:03:57.237Z,180
2022-12-05T03:04:17.421Z,112.5
2022-12-05T03:04:37.495Z,202.5
2022-12-05T03:05:37.521Z,315
2022-12-05T03:05:57.561Z,337.5
2022-12-05T03:06:17.596Z,270
2022-12-05T03:06:37.649Z,112.5
2022-12-05T03:06:57.716Z,135
2022-12-05T03:07:17.802Z,135
2022-12-05T03:07:37.882Z,247.5
2022-12-05T03:07:57.943Z,292.5
2022-12-05T03:08:18.146Z,337.5
2022-12-05T03:08:37.989Z,337.5
2022-12-05T03:08:58.038Z,0
2022-12-05T03:09:18.076Z,270
2022-12-05T03:09:38.150Z,157.5
2022-12-05T03:09:58.350Z,135
2022-12-05T03:10:18.221Z,225
2022-12-05T03:10:38.264Z,315
2022-12-05T03:10:58.280Z,337.5
2022-12-05T03:11:18.347Z,270
2022-12-05T03:11:38.400Z,112.5
2022-12-05T03:11:58.434Z,112.5
2022-12-05T03:12:18.554Z,225
2022-12-05T03:12:38.492Z,247.5
2022-12-05T03:12:58.547Z,157.5
2022-12-05T03:13:18.583Z,112.5
2022-12-05T03:13:38.610Z,112.5
2022-12-05T03:13:58.654Z,225
2022-12-05T03:14:18.698Z,292.5
2022-12-05T03:14:38.744Z,225
2022-12-05T03:14:58.847Z,157.5
2022-12-05T03:15:18.852Z,225
2022-12-05T03:15:38.869Z,292.5
2022-12-05T03:15:58.994Z,315
2022-12-05T03:16:19.058Z,270
2022-12-05T03:16:39.285Z,315
2022-12-05T03:16:59.240Z,315
2022-12-05T03:17:19.213Z,270
2022-12-05T03:17:39.386Z,292.5
2022-12-05T03:17:59.341Z,225
2022-12-05T03:18:19.386Z,202.5
2022-12-05T03:18:39.433Z,225
2022-12-05T03:18:59.432Z,247.5
2022-12-05T03:19:19.467Z,180
2022-12-05T03:19:39.529Z,135
2022-12-05T03:19:59.973Z,247.5
2022-12-05T03:20:19.594Z,315
2022-12-05T03:20:39.631Z,337.5
2022-12-05T03:20:59.685Z,337.5
2022-12-05T03:21:19.769Z,315
2022-12-05T03:21:39.807Z,292.5
2022-12-05T03:21:59.862Z,292.5
2022-12-05T03:22:19.910Z,270
2022-12-05T03:22:39.936Z,247.5
2022-12-05T03:22:59.991Z,247.5
2022-12-05T03:23:20.022Z,292.5
2022-12-05T03:23:40.129Z,247.5
2022-12-05T03:24:00.109Z,270
2022-12-05T03:24:20.169Z,292.5
2022-12-05T03:24:40.219Z,225
2022-12-05T03:25:00.281Z,157.5
2022-12-05T03:25:20.304Z,247.5
2022-12-05T03:25:40.350Z,202.5
2022-12-05T03:26:00.375Z,202.5
2022-12-05T03:26:20.422Z,180
2022-12-05T03:26:40.456Z,135
2022-12-05T03:27:00.510Z,135
2022-12-05T03:27:20.557Z,202.5
2022-12-05T03:27:40.574Z,202.5
2022-12-05T03:28:00.613Z,112.5
2022-12-05T03:28:20.679Z,157.5
2022-12-05T03:28:40.681Z,270
2022-12-05T03:29:00.712Z,337.5
2022-12-05T03:29:20.834Z,270
2022-12-05T03:29:40.822Z,112.5
2022-12-05T03:30:01.142Z,90
2022-12-05T03:30:20.944Z,202.5
2022-12-05T03:30:41.014Z,270
2022-12-05T03:31:01.108Z,225
2022-12-05T03:31:21.179Z,270
2022-12-05T03:31:41.127Z,315
2022-12-05T03:32:01.155Z,315
2022-12-05T03:32:21.219Z,292.5
2022-12-05T03:32:41.252Z,180
2022-12-05T03:33:01.308Z,157.5
2022-12-05T03:33:21.365Z,90
2022-12-05T03:33:41.415Z,112.5
2022-12-05T03:34:01.419Z,180
2022-12-05T03:34:21.464Z,202.5
2022-12-05T03:34:41.477Z,247.5
2022-12-05T03:35:01.512Z,270
2022-12-05T03:35:21.544Z,292.5
2022-12-05T03:35:41.637Z,315
2022-12-05T03:36:01.656Z,247.5
2022-12-05T03:36:21.684Z,157.5
2022-12-05T03:36:41.735Z,135
2022-12-05T03:37:01.761Z,135
2022-12-05T03:37:21.839Z,135
2022-12-05T03:37:41.879Z,135
2022-12-05T03:38:01.961Z,202.5
2022-12-05T03:38:21.966Z,202.5
2022-12-05T03:38:41.996Z,157.5
2022-12-05T03:39:02.049Z,225
2022-12-05T03:39:22.073Z,247.5
2022-12-05T03:39:42.162Z,202.5
2022-12-05T03:40:02.248Z,202.5
2022-12-05T03:40:22.211Z,112.5
2022-12-05T03:40:42.279Z,180
2022-12-05T03:41:02.365Z,247.5
2022-12-05T03:41:22.350Z,270
2022-12-05T03:41:42.375Z,292.5
2022-12-05T03:42:02.414Z,180
2022-12-05T03:42:22.457Z,157.5
2022-12-05T03:42:42.500Z,225
2022-12-05T03:43:02.560Z,225
2022-12-05T03:43:22.579Z,180
2022-12-05T03:43:42.608Z,270
2022-12-05T03:44:02.662Z,270
2022-12-05T03:44:22.739Z,180
2022-12-05T03:44:42.758Z,112.5
2022-12-05T03:45:02.766Z,67.5
2022-12-05T03:45:22.800Z,90
2022-12-05T03:45:42.915Z,225
2022-12-05T03:46:02.951Z,247.5
2022-12-05T03:46:23.097Z,292.5
2022-12-05T03:46:42.964Z,315
2022-12-05T03:47:03.065Z,337.5
2022-12-05T03:47:23.164Z,337.5
2022-12-05T03:47:43.219Z,292.5
2022-12-05T03:48:03.253Z,270
2022-12-05T03:48:23.278Z,202.5
2022-12-05T03:48:43.318Z,90
2022-12-05T03:49:03.362Z,135
2022-12-05T03:49:23.406Z,202.5
2022-12-05T03:49:43.480Z,270
2022-12-05T03:50:03.521Z,315
2022-12-05T03:50:23.548Z,315
2022-12-05T03:50:43.582Z,315
2022-12-05T03:51:03.624Z,270
2022-12-05T03:51:23.647Z,135
2022-12-05T03:51:43.682Z,202.5
2022-12-05T03:52:03.718Z,270
2022-12-05T03:52:23.783Z,315
2022-12-05T03:53:11.471Z,292.5
2022-12-05T03:53:20.634Z,202.5
2022-12-05T03:53:23.933Z,247.5
2022-12-05T03:53:43.999Z,247.5
2022-12-05T03:54:04.017Z,270
2022-12-05T03:54:24.052Z,270
2022-12-05T03:54:44.129Z,270
2022-12-05T03:55:04.156Z,225
2022-12-05T03:55:24.208Z,202.5
2022-12-05T03:55:44.256Z,180
2022-12-05T03:56:04.311Z,225
2022-12-05T03:56:24.347Z,180
2022-12-05T03:56:44.360Z,202.5
2022-12-05T03:57:04.454Z,270
2022-12-05T03:57:24.473Z,202.5
2022-12-05T03:57:44.500Z,90
2022-12-05T03:58:04.537Z,45
2022-12-05T03:58:24.571Z,135
2022-12-05T03:58:44.611Z,112.5
2022-12-05T03:59:04.654Z,180
2022-12-05T03:59:24.696Z,292.5
2022-12-05T03:59:44.717Z,337.5
2022-12-05T04:00:04.809Z,292.5
2022-12-05T04:00:24.815Z,247.5
2022-12-05T04:00:44.850Z,292.5
2022-12-05T04:01:04.952Z,315
2022-12-05T04:01:25.077Z,315
2022-12-05T04:01:45.103Z,270
2022-12-05T04:02:05.164Z,270
2022-12-05T04:02:25.137Z,202.5
2022-12-05T04:02:45.171Z,270
2022-12-05T04:03:05.272Z,292.5
2022-12-05T04:03:25.291Z,225
2022-12-05T04:03:45.449Z,292.5
2022-12-05T04:04:05.366Z,247.5
2022-12-05T04:04:25.380Z,292.5
2022-12-05T04:04:45.408Z,292.5
2022-12-05T04:05:05.508Z,315
2022-12-05T04:05:25.508Z,315
2022-12-05T04:05:45.568Z,247.5
2022-12-05T04:06:05.614Z,135
2022-12-05T04:06:25.661Z,202.5
2022-12-05T04:06:45.701Z,247.5
2022-12-05T04:07:05.730Z,270
2022-12-05T04:07:25.813Z,270
2022-12-05T04:07:45.927Z,202.5
2022-12-05T04:08:06.030Z,135
2022-12-05T04:08:25.935Z,67.5
2022-12-05T04:08:45.977Z,135
2022-12-05T04:09:06.054Z,247.5
2022-12-05T04:09:26.106Z,315
2022-12-05T04:09:46.166Z,315
2022-12-05T04:10:06.219Z,315
2022-12-05T04:10:26.238Z,225
2022-12-05T04:10:46.277Z,90
2022-12-05T04:11:06.324Z,157.5
2022-12-05T04:11:26.370Z,270
2022-12-05T04:11:46.456Z,270
2022-12-05T04:12:06.538Z,202.5
2022-12-05T04:12:26.510Z,247.5
2022-12-05T04:12:46.568Z,292.5
2022-12-05T04:13:06.587Z,292.5
2022-12-05T04:13:26.639Z,315
2022-12-05T04:13:46.677Z,270
2022-12-05T04:14:06.700Z,157.5
2022-12-05T04:14:26.749Z,180
2022-12-05T04:14:46.802Z,270
2022-12-05T04:15:06.826Z,247.5
2022-12-05T04:15:26.852Z,202.5
2022-12-05T04:15:46.923Z,247.5
2022-12-05T04:16:07.045Z,292.5
2022-12-05T04:16:27.057Z,315
2022-12-05T04:16:47.051Z,247.5
2022-12-05T04:17:07.079Z,270
2022-12-05T04:17:27.100Z,247.5
2022-12-05T04:17:53.255Z,157.5
2022-12-05T04:18:07.194Z,180
2022-12-05T04:18:27.229Z,270
2022-12-05T04:18:47.287Z,270
2022-12-05T04:19:07.288Z,247.5
2022-12-05T04:19:27.324Z,225
2022-12-05T04:19:47.382Z,270
2022-12-05T04:20:07.440Z,315
2022-12-05T04:20:27.516Z,315
2022-12-05T04:20:47.590Z,315
2022-12-05T04:21:07.645Z,315
2022-12-05T04:21:27.739Z,270
2022-12-05T04:21:47.762Z,225
2022-12-05T04:22:07.811Z,157.5
2022-12-05T04:22:27.845Z,135
2022-12-05T04:22:47.881Z,135
2022-12-05T04:23:07.919Z,180
2022-12-05T04:23:27.989Z,225
2022-12-05T04:23:48.032Z,247.5
2022-12-05T04:24:08.118Z,292.5
2022-12-05T04:24:28.145Z,225
2022-12-05T04:24:48.230Z,225
2022-12-05T04:25:08.267Z,270
2022-12-05T04:25:28.347Z,315
2022-12-05T04:25:48.327Z,270
2022-12-05T04:26:08.378Z,225
2022-12-05T04:26:28.436Z,225
2022-12-05T04:26:48.467Z,292.5
2022-12-05T04:27:08.502Z,270
2022-12-05T04:27:28.532Z,247.5
2022-12-05T04:27:48.587Z,247.5
2022-12-05T04:28:08.607Z,270
2022-12-05T04:28:28.694Z,270
2022-12-05T04:28:48.767Z,270
2022-12-05T04:29:08.861Z,157.5
2022-12-05T04:29:28.901Z,202.5
2022-12-05T04:29:49.010Z,270
2022-12-05T04:30:09.055Z,270
2022-12-05T04:30:29.112Z,247.5
2022-12-05T04:30:49.213Z,270